createdAt,value
2023-10-26T00:00:52.000Z,998.92
2023-10-26T00:01:52.000Z,998.92
2023-10-26T00:02:53.000Z,998.93
2023-10-26T00:03:53.000Z,998.96
2023-10-26T00:04:54.000Z,998.92
2023-10-26T00:05:54.000Z,998.94
2023-10-26T00:06:54.000Z,998.94
2023-10-26T00:08:02.000Z,998.92
2023-10-26T00:09:02.000Z,998.87
2023-10-26T00:10:02.000Z,998.93
2023-10-26T00:11:03.000Z,998.92
2023-10-26T00:12:03.000Z,998.96
2023-10-26T00:13:03.000Z,998.89
2023-10-26T00:14:04.000Z,998.95
2023-10-26T00:15:04.000Z,998.91
2023-10-26T00:16:04.000Z,998.99
2023-10-26T00:17:05.000Z,998.97
2023-10-26T00:18:05.000Z,998.97
2023-10-26T00:19:05.000Z,999.0
2023-10-26T00:20:06.000Z,999.03
2023-10-26T00:21:06.000Z,999.04
2023-10-26T00:22:06.000Z,998.99
2023-10-26T00:23:07.000Z,999.05
2023-10-26T00:24:07.000Z,999.05
2023-10-26T00:25:07.000Z,999.06
2023-10-26T00:26:07.000Z,999.0
2023-10-26T00:27:08.000Z,999.03
2023-10-26T00:28:08.000Z,999.06
2023-10-26T00:29:08.000Z,999.07
2023-10-26T00:30:09.000Z,999.05
2023-10-26T00:31:09.000Z,999.0
2023-10-26T00:32:09.000Z,999.08
2023-10-26T00:33:10.000Z,999.04
2023-10-26T00:34:10.000Z,999.04
2023-10-26T00:35:10.000Z,999.11
2023-10-26T00:36:11.000Z,999.04
2023-10-26T00:37:11.000Z,999.08
2023-10-26T00:38:11.000Z,999.08
2023-10-26T00:39:12.000Z,999.09
2023-10-26T00:40:12.000Z,999.06
2023-10-26T00:41:12.000Z,999.02
2023-10-26T00:42:16.000Z,999.08
2023-10-26T00:43:16.000Z,999.06
2023-10-26T00:44:16.000Z,999.05
2023-10-26T00:45:17.000Z,999.07
2023-10-26T00:46:17.000Z,999.07
2023-10-26T00:47:17.000Z,999.07
2023-10-26T00:48:18.000Z,999.11
2023-10-26T00:49:18.000Z,999.1
2023-10-26T00:50:18.000Z,999.11
2023-10-26T00:51:19.000Z,999.05
2023-10-26T00:52:19.000Z,999.07
2023-10-26T00:53:19.000Z,999.11
2023-10-26T00:54:20.000Z,999.09
2023-10-26T00:55:20.000Z,999.07
2023-10-26T00:56:20.000Z,999.03
2023-10-26T00:57:20.000Z,999.06
2023-10-26T00:58:21.000Z,999.03
2023-10-26T00:59:21.000Z,999.13
2023-10-26T01:00:21.000Z,999.08
2023-10-26T01:01:22.000Z,999.04
2023-10-26T01:02:22.000Z,999.08
2023-10-26T01:03:22.000Z,999.09
2023-10-26T01:04:23.000Z,999.07
2023-10-26T01:05:23.000Z,999.1
2023-10-26T01:06:23.000Z,999.06
2023-10-26T01:07:24.000Z,999.06
2023-10-26T01:08:24.000Z,999.04
2023-10-26T01:09:24.000Z,999.01
2023-10-26T01:10:32.000Z,999.06
2023-10-26T01:11:32.000Z,999.12
2023-10-26T01:12:33.000Z,999.08
2023-10-26T01:13:33.000Z,999.13
2023-10-26T01:14:33.000Z,999.07
2023-10-26T01:15:34.000Z,999.12
2023-10-26T01:16:34.000Z,999.07
2023-10-26T01:17:34.000Z,999.1
2023-10-26T01:18:35.000Z,999.11
2023-10-26T01:19:35.000Z,999.11
2023-10-26T01:20:35.000Z,999.15
2023-10-26T01:21:36.000Z,999.15
2023-10-26T01:22:36.000Z,999.15
2023-10-26T01:23:36.000Z,999.11
2023-10-26T01:24:37.000Z,999.12
2023-10-26T01:25:37.000Z,999.17
2023-10-26T01:26:37.000Z,999.21
2023-10-26T01:27:38.000Z,999.18
2023-10-26T01:28:38.000Z,999.17
2023-10-26T01:29:38.000Z,999.16
2023-10-26T01:30:39.000Z,999.21
2023-10-26T01:31:39.000Z,999.18
2023-10-26T01:32:40.000Z,999.19
2023-10-26T01:33:40.000Z,999.18
2023-10-26T01:34:40.000Z,999.09
2023-10-26T01:35:41.000Z,999.18
2023-10-26T01:36:41.000Z,999.14
2023-10-26T01:37:41.000Z,999.17
2023-10-26T01:38:42.000Z,999.18
2023-10-26T01:39:42.000Z,999.11
2023-10-26T01:40:42.000Z,999.1
2023-10-26T01:41:43.000Z,999.09
2023-10-26T01:42:43.000Z,999.07
2023-10-26T01:43:43.000Z,999.01
2023-10-26T01:44:44.000Z,999.02
2023-10-26T01:45:44.000Z,999.04
2023-10-26T01:46:44.000Z,999.05
2023-10-26T01:47:45.000Z,999.06
2023-10-26T01:48:45.000Z,999.06
2023-10-26T01:49:45.000Z,999.09
2023-10-26T01:50:46.000Z,999.03
2023-10-26T01:51:46.000Z,999.05
2023-10-26T01:52:46.000Z,999.02
2023-10-26T01:53:47.000Z,999.05
2023-10-26T01:54:47.000Z,998.99
2023-10-26T01:55:47.000Z,998.99
2023-10-26T01:56:48.000Z,998.98
2023-10-26T01:57:48.000Z,998.99
2023-10-26T01:58:48.000Z,998.99
2023-10-26T01:59:49.000Z,999.01
2023-10-26T02:00:49.000Z,999.0
2023-10-26T02:01:49.000Z,998.97
2023-10-26T02:02:50.000Z,998.99
2023-10-26T02:03:50.000Z,998.94
2023-10-26T02:04:50.000Z,998.98
2023-10-26T02:05:51.000Z,998.99
2023-10-26T02:06:51.000Z,999.0
2023-10-26T02:07:51.000Z,998.99
2023-10-26T02:08:52.000Z,998.99
2023-10-26T02:09:52.000Z,998.98
2023-10-26T02:10:52.000Z,999.01
2023-10-26T02:11:53.000Z,999.02
2023-10-26T02:12:53.000Z,999.02
2023-10-26T02:13:53.000Z,998.98
2023-10-26T02:14:53.000Z,998.96
2023-10-26T02:15:54.000Z,998.97
2023-10-26T02:16:54.000Z,999.0
2023-10-26T02:17:54.000Z,999.03
2023-10-26T02:18:55.000Z,998.97
2023-10-26T02:19:55.000Z,999.07
2023-10-26T02:20:55.000Z,999.02
2023-10-26T02:21:56.000Z,999.03
2023-10-26T02:22:56.000Z,999.04
2023-10-26T02:23:56.000Z,999.05
2023-10-26T02:24:57.000Z,999.04
2023-10-26T02:25:57.000Z,999.07
2023-10-26T02:26:57.000Z,999.04
2023-10-26T02:27:58.000Z,999.06
2023-10-26T02:28:58.000Z,999.04
2023-10-26T02:29:58.000Z,999.04
2023-10-26T02:30:59.000Z,999.1
2023-10-26T02:31:59.000Z,999.12
2023-10-26T02:32:59.000Z,999.19
2023-10-26T02:34:00.000Z,999.15
2023-10-26T02:35:00.000Z,999.12
2023-10-26T02:36:00.000Z,999.18
2023-10-26T02:37:01.000Z,999.14
2023-10-26T02:38:01.000Z,999.18
2023-10-26T02:39:01.000Z,999.14
2023-10-26T02:40:02.000Z,999.18
2023-10-26T02:41:02.000Z,999.1
2023-10-26T02:42:02.000Z,999.18
2023-10-26T02:43:02.000Z,999.16
2023-10-26T02:44:03.000Z,999.18
2023-10-26T02:45:03.000Z,999.14
2023-10-26T02:46:11.000Z,999.14
2023-10-26T02:47:11.000Z,999.16
2023-10-26T02:48:11.000Z,999.16
2023-10-26T02:49:11.000Z,999.09
2023-10-26T02:50:12.000Z,999.16
2023-10-26T02:51:12.000Z,999.2
2023-10-26T02:52:12.000Z,999.15
2023-10-26T02:53:13.000Z,999.18
2023-10-26T02:54:13.000Z,999.14
2023-10-26T02:55:13.000Z,999.21
2023-10-26T02:56:14.000Z,999.14
2023-10-26T02:57:14.000Z,999.17
2023-10-26T02:58:14.000Z,999.12
2023-10-26T02:59:15.000Z,999.13
2023-10-26T03:00:15.000Z,999.13
2023-10-26T03:01:23.000Z,999.22
2023-10-26T03:02:23.000Z,999.21
2023-10-26T03:03:23.000Z,999.2
2023-10-26T03:04:24.000Z,999.19
2023-10-26T03:05:24.000Z,999.19
2023-10-26T03:06:24.000Z,999.17
2023-10-26T03:07:24.000Z,999.2
2023-10-26T03:08:25.000Z,999.18
2023-10-26T03:09:25.000Z,999.24
2023-10-26T03:10:26.000Z,999.23
2023-10-26T03:11:26.000Z,999.27
2023-10-26T03:12:26.000Z,999.25
2023-10-26T03:13:26.000Z,999.24
2023-10-26T03:14:27.000Z,999.24
2023-10-26T03:15:27.000Z,999.26
2023-10-26T03:16:27.000Z,999.28
2023-10-26T03:17:28.000Z,999.31
2023-10-26T03:18:28.000Z,999.3
2023-10-26T03:19:28.000Z,999.27
2023-10-26T03:20:28.000Z,999.28
2023-10-26T03:21:29.000Z,999.28
2023-10-26T03:22:29.000Z,999.27
2023-10-26T03:23:29.000Z,999.33
2023-10-26T03:24:30.000Z,999.27
2023-10-26T03:25:30.000Z,999.26
2023-10-26T03:26:30.000Z,999.29
2023-10-26T03:27:31.000Z,999.33
2023-10-26T03:28:31.000Z,999.37
2023-10-26T03:29:32.000Z,999.29
2023-10-26T03:30:40.000Z,999.31
2023-10-26T03:31:40.000Z,999.37
2023-10-26T03:32:41.000Z,999.34
2023-10-26T03:33:41.000Z,999.32
2023-10-26T03:34:41.000Z,999.31
2023-10-26T03:35:42.000Z,999.33
2023-10-26T03:36:49.000Z,999.4
2023-10-26T03:37:50.000Z,999.38
2023-10-26T03:38:57.000Z,999.4
2023-10-26T03:39:57.000Z,999.42
2023-10-26T03:40:58.000Z,999.4
2023-10-26T03:41:58.000Z,999.45
2023-10-26T03:42:58.000Z,999.48
2023-10-26T03:43:58.000Z,999.47
2023-10-26T03:44:59.000Z,999.5
2023-10-26T03:45:59.000Z,999.46
2023-10-26T03:46:59.000Z,999.47
2023-10-26T03:48:00.000Z,999.48
2023-10-26T03:49:00.000Z,999.43
2023-10-26T03:50:00.000Z,999.48
2023-10-26T03:51:00.000Z,999.46
2023-10-26T03:52:01.000Z,999.44
2023-10-26T03:53:01.000Z,999.42
2023-10-26T03:54:01.000Z,999.44
2023-10-26T03:55:02.000Z,999.43
2023-10-26T03:56:02.000Z,999.44
2023-10-26T03:57:02.000Z,999.4
2023-10-26T03:58:02.000Z,999.4
2023-10-26T03:59:03.000Z,999.43
2023-10-26T04:00:03.000Z,999.45
2023-10-26T04:01:03.000Z,999.42
2023-10-26T04:02:04.000Z,999.46
2023-10-26T04:03:04.000Z,999.37
2023-10-26T04:04:04.000Z,999.43
2023-10-26T04:05:04.000Z,999.43
2023-10-26T04:06:05.000Z,999.48
2023-10-26T04:07:05.000Z,999.44
2023-10-26T04:08:05.000Z,999.48
2023-10-26T04:09:13.000Z,999.41
2023-10-26T04:10:13.000Z,999.44
2023-10-26T04:11:14.000Z,999.45
2023-10-26T04:12:21.000Z,999.46
2023-10-26T04:13:22.000Z,999.45
2023-10-26T04:14:22.000Z,999.47
2023-10-26T04:15:22.000Z,999.47
2023-10-26T04:16:22.000Z,999.49
2023-10-26T04:17:23.000Z,999.49
2023-10-26T04:18:23.000Z,999.49
2023-10-26T04:19:23.000Z,999.49
2023-10-26T04:20:24.000Z,999.44
2023-10-26T04:21:24.000Z,999.48
2023-10-26T04:22:24.000Z,999.54
2023-10-26T04:23:32.000Z,999.5
2023-10-26T04:24:32.000Z,999.51
2023-10-26T04:25:32.000Z,999.51
2023-10-26T04:26:32.000Z,999.47
2023-10-26T04:27:33.000Z,999.49
2023-10-26T04:28:33.000Z,999.55
2023-10-26T04:29:33.000Z,999.52
2023-10-26T04:30:33.000Z,999.51
2023-10-26T04:31:33.000Z,999.54
2023-10-26T04:32:34.000Z,999.5
2023-10-26T04:33:34.000Z,999.51
2023-10-26T04:34:34.000Z,999.53
2023-10-26T04:35:35.000Z,999.51
2023-10-26T04:36:35.000Z,999.58
2023-10-26T04:37:35.000Z,999.5
2023-10-26T04:38:35.000Z,999.51
2023-10-26T04:39:36.000Z,999.53
2023-10-26T04:40:36.000Z,999.5
2023-10-26T04:41:36.000Z,999.56
2023-10-26T04:42:36.000Z,999.54
2023-10-26T04:43:37.000Z,999.55
2023-10-26T04:44:37.000Z,999.58
2023-10-26T04:45:37.000Z,999.6
2023-10-26T04:46:38.000Z,999.58
2023-10-26T04:47:38.000Z,999.62
2023-10-26T04:48:38.000Z,999.58
2023-10-26T04:49:38.000Z,999.53
2023-10-26T04:50:39.000Z,999.58
2023-10-26T04:51:39.000Z,999.6
2023-10-26T04:52:39.000Z,999.59
2023-10-26T04:53:39.000Z,999.61
2023-10-26T04:54:40.000Z,999.59
2023-10-26T04:55:40.000Z,999.57
2023-10-26T04:56:40.000Z,999.57
2023-10-26T04:57:40.000Z,999.63
2023-10-26T04:58:41.000Z,999.62
2023-10-26T04:59:41.000Z,999.63
2023-10-26T05:00:41.000Z,999.61
2023-10-26T05:01:41.000Z,999.6
2023-10-26T05:02:42.000Z,999.64
2023-10-26T05:03:45.000Z,999.66
2023-10-26T05:04:45.000Z,999.62
2023-10-26T05:05:46.000Z,999.61
2023-10-26T05:06:46.000Z,999.65
2023-10-26T05:07:46.000Z,999.65
2023-10-26T05:08:46.000Z,999.62
2023-10-26T05:09:47.000Z,999.59
2023-10-26T05:10:47.000Z,999.66
2023-10-26T05:11:47.000Z,999.67
2023-10-26T05:12:48.000Z,999.7
2023-10-26T05:13:48.000Z,999.7
2023-10-26T05:14:48.000Z,999.73
2023-10-26T05:15:48.000Z,999.7
2023-10-26T05:16:49.000Z,999.73
2023-10-26T05:17:49.000Z,999.75
2023-10-26T05:18:49.000Z,999.76
2023-10-26T05:19:49.000Z,999.77
2023-10-26T05:20:50.000Z,999.78
2023-10-26T05:21:50.000Z,999.75
2023-10-26T05:22:50.000Z,999.75
2023-10-26T05:23:50.000Z,999.83
2023-10-26T05:24:51.000Z,999.79
2023-10-26T05:25:51.000Z,999.78
2023-10-26T05:26:51.000Z,999.76
2023-10-26T05:27:52.000Z,999.73
2023-10-26T05:28:52.000Z,999.77
2023-10-26T05:29:55.000Z,999.79
2023-10-26T05:31:03.000Z,999.8
2023-10-26T05:32:03.000Z,999.8
2023-10-26T05:33:03.000Z,999.83
2023-10-26T05:34:13.000Z,999.78
2023-10-26T05:35:14.000Z,999.79
2023-10-26T05:36:14.000Z,999.81
2023-10-26T05:37:14.000Z,999.69
2023-10-26T05:38:15.000Z,999.8
2023-10-26T05:39:15.000Z,999.73
2023-10-26T05:40:15.000Z,999.76
2023-10-26T05:41:15.000Z,999.76
2023-10-26T05:42:16.000Z,999.78
2023-10-26T05:43:16.000Z,999.74
2023-10-26T05:44:16.000Z,999.82
2023-10-26T05:45:16.000Z,999.76
2023-10-26T05:46:17.000Z,999.84
2023-10-26T05:47:17.000Z,999.8
2023-10-26T05:48:18.000Z,999.86
2023-10-26T05:49:19.000Z,999.84
2023-10-26T05:50:19.000Z,999.89
2023-10-26T05:51:19.000Z,999.89
2023-10-26T05:52:19.000Z,999.88
2023-10-26T05:53:20.000Z,999.86
2023-10-26T05:54:20.000Z,999.89
2023-10-26T05:55:20.000Z,999.94
2023-10-26T05:56:20.000Z,999.95
2023-10-26T05:57:21.000Z,999.94
2023-10-26T05:58:21.000Z,999.95
2023-10-26T05:59:21.000Z,999.94
2023-10-26T06:00:21.000Z,999.98
2023-10-26T06:01:22.000Z,999.98
2023-10-26T06:02:22.000Z,999.98
2023-10-26T06:03:22.000Z,999.95
2023-10-26T06:04:22.000Z,999.96
2023-10-26T06:05:23.000Z,999.96
2023-10-26T06:06:23.000Z,1000.0
2023-10-26T06:07:23.000Z,1000.04
2023-10-26T06:08:23.000Z,1000.04
2023-10-26T06:09:24.000Z,999.98
2023-10-26T06:10:24.000Z,1000.04
2023-10-26T06:11:24.000Z,1000.12
2023-10-26T06:12:25.000Z,1000.1
2023-10-26T06:13:25.000Z,1000.13
2023-10-26T06:14:25.000Z,1000.11
2023-10-26T06:15:25.000Z,1000.18
2023-10-26T06:16:26.000Z,1000.18
2023-10-26T06:17:26.000Z,1000.14
2023-10-26T06:18:26.000Z,1000.19
2023-10-26T06:19:27.000Z,1000.18
2023-10-26T06:20:27.000Z,1000.2
2023-10-26T06:21:27.000Z,1000.2
2023-10-26T06:22:28.000Z,1000.2
2023-10-26T06:23:28.000Z,1000.22
2023-10-26T06:24:28.000Z,1000.27
2023-10-26T06:25:28.000Z,1000.28
2023-10-26T06:26:29.000Z,1000.26
2023-10-26T06:27:29.000Z,1000.25
2023-10-26T06:28:29.000Z,1000.24
2023-10-26T06:29:30.000Z,1000.23
2023-10-26T06:30:30.000Z,1000.22
2023-10-26T06:31:30.000Z,1000.22
2023-10-26T06:32:30.000Z,1000.21
2023-10-26T06:33:30.000Z,1000.21
2023-10-26T06:34:31.000Z,1000.22
2023-10-26T06:35:31.000Z,1000.28
2023-10-26T06:36:31.000Z,1000.24
2023-10-26T06:37:31.000Z,1000.25
2023-10-26T06:38:32.000Z,1000.15
2023-10-26T06:39:32.000Z,1000.22
2023-10-26T06:40:32.000Z,1000.29
2023-10-26T06:41:32.000Z,1000.2
2023-10-26T06:42:33.000Z,1000.26
2023-10-26T06:43:33.000Z,1000.21
2023-10-26T06:44:33.000Z,1000.28
2023-10-26T06:45:33.000Z,1000.29
2023-10-26T06:46:34.000Z,1000.27
2023-10-26T06:47:35.000Z,1000.31
2023-10-26T06:48:35.000Z,1000.25
2023-10-26T06:49:36.000Z,1000.27
2023-10-26T06:50:36.000Z,1000.24
2023-10-26T06:51:36.000Z,1000.28
2023-10-26T06:52:36.000Z,1000.24
2023-10-26T06:53:37.000Z,1000.31
2023-10-26T06:54:37.000Z,1000.36
2023-10-26T06:55:37.000Z,1000.37
2023-10-26T06:56:38.000Z,1000.35
2023-10-26T06:57:38.000Z,1000.34
2023-10-26T06:58:38.000Z,1000.33
2023-10-26T06:59:39.000Z,1000.37
2023-10-26T07:00:39.000Z,1000.33
2023-10-26T07:01:39.000Z,1000.33
2023-10-26T07:02:39.000Z,1000.3
2023-10-26T07:03:40.000Z,1000.35
2023-10-26T07:04:40.000Z,1000.34
2023-10-26T07:05:47.000Z,1000.36
2023-10-26T07:06:48.000Z,1000.42
2023-10-26T07:07:48.000Z,1000.36
2023-10-26T07:08:48.000Z,1000.42
2023-10-26T07:09:48.000Z,1000.43
2023-10-26T07:10:49.000Z,1000.42
2023-10-26T07:11:49.000Z,1000.53
2023-10-26T07:12:52.000Z,1000.47
2023-10-26T07:13:53.000Z,1000.54
2023-10-26T07:14:53.000Z,1000.53
2023-10-26T07:15:56.000Z,1000.57
2023-10-26T07:16:57.000Z,1000.59
2023-10-26T07:17:57.000Z,1000.58
2023-10-26T07:19:07.000Z,1000.51
2023-10-26T07:20:07.000Z,1000.64
2023-10-26T07:21:08.000Z,1000.6
2023-10-26T07:22:08.000Z,1000.6
2023-10-26T07:23:08.000Z,1000.64
2023-10-26T07:24:09.000Z,1000.6
2023-10-26T07:25:09.000Z,1000.62
2023-10-26T07:26:09.000Z,1000.63
2023-10-26T07:27:09.000Z,1000.63
2023-10-26T07:28:10.000Z,1000.61
2023-10-26T07:29:10.000Z,1000.7
2023-10-26T07:30:11.000Z,1000.65
2023-10-26T07:31:11.000Z,1000.69
2023-10-26T07:32:11.000Z,1000.72
2023-10-26T07:33:12.000Z,1000.68
2023-10-26T07:34:12.000Z,1000.71
2023-10-26T07:35:12.000Z,1000.69
2023-10-26T07:36:13.000Z,1000.74
2023-10-26T07:37:13.000Z,1000.73
2023-10-26T07:38:13.000Z,1000.8
2023-10-26T07:39:14.000Z,1000.75
2023-10-26T07:40:14.000Z,1000.78
2023-10-26T07:41:14.000Z,1000.79
2023-10-26T07:42:14.000Z,1000.83
2023-10-26T07:43:15.000Z,1000.84
2023-10-26T07:44:15.000Z,1000.86
2023-10-26T07:45:15.000Z,1000.84
2023-10-26T07:46:15.000Z,1000.87
2023-10-26T07:47:16.000Z,1000.89
2023-10-26T07:48:16.000Z,1000.9
2023-10-26T07:49:16.000Z,1000.85
2023-10-26T07:50:16.000Z,1000.91
2023-10-26T07:51:17.000Z,1000.88
2023-10-26T07:52:17.000Z,1000.95
2023-10-26T07:53:17.000Z,1000.93
2023-10-26T07:54:18.000Z,1000.97
2023-10-26T07:55:18.000Z,1000.95
2023-10-26T07:56:18.000Z,1001.04
2023-10-26T07:57:18.000Z,1000.98
2023-10-26T07:58:19.000Z,1001.03
2023-10-26T07:59:19.000Z,1001.0
2023-10-26T08:00:19.000Z,1001.0
2023-10-26T08:01:19.000Z,1001.0
2023-10-26T08:02:20.000Z,1001.0
2023-10-26T08:03:20.000Z,1000.96
2023-10-26T08:04:20.000Z,1001.05
2023-10-26T08:05:21.000Z,1001.0
2023-10-26T08:06:21.000Z,1001.0
2023-10-26T08:07:21.000Z,1000.96
2023-10-26T08:08:21.000Z,1001.05
2023-10-26T08:09:22.000Z,1001.02
2023-10-26T08:10:22.000Z,1001.12
2023-10-26T08:11:22.000Z,1001.05
2023-10-26T08:12:22.000Z,1001.03
2023-10-26T08:13:23.000Z,1001.11
2023-10-26T08:14:23.000Z,1001.11
2023-10-26T08:15:23.000Z,1001.14
2023-10-26T08:16:23.000Z,1001.16
2023-10-26T08:17:24.000Z,1001.15
2023-10-26T08:18:24.000Z,1001.21
2023-10-26T08:19:24.000Z,1001.24
2023-10-26T08:20:24.000Z,1001.32
2023-10-26T08:21:25.000Z,1001.22
2023-10-26T08:22:25.000Z,1001.27
2023-10-26T08:23:25.000Z,1001.28
2023-10-26T08:24:25.000Z,1001.28
2023-10-26T08:25:26.000Z,1001.32
2023-10-26T08:26:26.000Z,1001.31
2023-10-26T08:27:26.000Z,1001.33
2023-10-26T08:28:27.000Z,1001.25
2023-10-26T08:29:27.000Z,1001.34
2023-10-26T08:30:27.000Z,1001.33
2023-10-26T08:31:27.000Z,1001.25
2023-10-26T08:32:28.000Z,1001.31
2023-10-26T08:33:28.000Z,1001.32
2023-10-26T08:34:28.000Z,1001.32
2023-10-26T08:35:28.000Z,1001.33
2023-10-26T08:36:30.000Z,1001.29
2023-10-26T08:37:30.000Z,1001.31
2023-10-26T08:38:30.000Z,1001.33
2023-10-26T08:39:31.000Z,1001.34
2023-10-26T08:40:31.000Z,1001.28
2023-10-26T08:41:34.000Z,1001.35
2023-10-26T08:42:35.000Z,1001.31
2023-10-26T08:43:35.000Z,1001.29
2023-10-26T08:44:35.000Z,1001.3
2023-10-26T08:45:35.000Z,1001.27
2023-10-26T08:46:39.000Z,1001.35
2023-10-26T08:47:39.000Z,1001.35
2023-10-26T08:48:39.000Z,1001.32
2023-10-26T08:49:39.000Z,1001.33
2023-10-26T08:50:40.000Z,1001.26
2023-10-26T08:51:40.000Z,1001.28
2023-10-26T08:52:40.000Z,1001.28
2023-10-26T08:53:44.000Z,1001.38
2023-10-26T08:54:44.000Z,1001.38
2023-10-26T08:55:51.000Z,1001.39
2023-10-26T08:56:51.000Z,1001.37
2023-10-26T08:57:59.000Z,1001.39
2023-10-26T08:58:59.000Z,1001.42
2023-10-26T09:00:00.000Z,1001.34
2023-10-26T09:01:00.000Z,1001.36
2023-10-26T09:02:00.000Z,1001.32
2023-10-26T09:03:01.000Z,1001.39
2023-10-26T09:04:01.000Z,1001.39
2023-10-26T09:05:01.000Z,1001.36
2023-10-26T09:06:02.000Z,1001.35
2023-10-26T09:07:02.000Z,1001.3
2023-10-26T09:08:02.000Z,1001.36
2023-10-26T09:09:12.000Z,1001.43
2023-10-26T09:10:16.000Z,1001.41
2023-10-26T09:11:16.000Z,1001.41
2023-10-26T09:12:16.000Z,1001.43
2023-10-26T09:13:17.000Z,1001.38
2023-10-26T09:14:17.000Z,1001.45
2023-10-26T09:15:20.000Z,1001.39
2023-10-26T09:16:21.000Z,1001.4
2023-10-26T09:17:21.000Z,1001.39
2023-10-26T09:18:22.000Z,1001.35
2023-10-26T09:19:22.000Z,1001.37
2023-10-26T09:20:22.000Z,1001.36
2023-10-26T09:21:23.000Z,1001.35
2023-10-26T09:22:23.000Z,1001.39
2023-10-26T09:23:23.000Z,1001.4
2023-10-26T09:24:24.000Z,1001.48
2023-10-26T09:25:31.000Z,1001.42
2023-10-26T09:26:31.000Z,1001.44
2023-10-26T09:27:39.000Z,1001.43
2023-10-26T09:28:46.000Z,1001.42
2023-10-26T09:29:49.000Z,1001.37
2023-10-26T09:30:50.000Z,1001.37
2023-10-26T09:31:50.000Z,1001.36
2023-10-26T09:32:50.000Z,1001.37
2023-10-26T09:33:51.000Z,1001.41
2023-10-26T09:34:51.000Z,1001.41
2023-10-26T09:35:51.000Z,1001.38
2023-10-26T09:36:51.000Z,1001.39
2023-10-26T09:37:52.000Z,1001.34
2023-10-26T09:38:52.000Z,1001.34
2023-10-26T09:39:52.000Z,1001.37
2023-10-26T09:40:52.000Z,1001.39
2023-10-26T09:41:53.000Z,1001.36
2023-10-26T09:42:53.000Z,1001.39
2023-10-26T09:43:53.000Z,1001.38
2023-10-26T09:44:54.000Z,1001.38
2023-10-26T09:45:54.000Z,1001.43
2023-10-26T09:46:54.000Z,1001.36
2023-10-26T09:47:54.000Z,1001.41
2023-10-26T09:48:55.000Z,1001.42
2023-10-26T09:49:55.000Z,1001.36
2023-10-26T09:50:55.000Z,1001.38
2023-10-26T09:51:55.000Z,1001.41
2023-10-26T09:52:56.000Z,1001.4
2023-10-26T09:54:03.000Z,1001.45
2023-10-26T09:55:04.000Z,1001.38
2023-10-26T09:56:04.000Z,1001.4
2023-10-26T09:57:04.000Z,1001.45
2023-10-26T09:58:04.000Z,1001.41
2023-10-26T09:59:05.000Z,1001.44
2023-10-26T10:00:05.000Z,1001.4
2023-10-26T10:01:05.000Z,1001.45
2023-10-26T10:02:13.000Z,1001.37
2023-10-26T10:03:13.000Z,1001.39
2023-10-26T10:04:13.000Z,1001.37
2023-10-26T10:05:13.000Z,1001.36
2023-10-26T10:06:14.000Z,1001.33
2023-10-26T10:07:14.000Z,1001.31
2023-10-26T10:08:14.000Z,1001.35
2023-10-26T10:09:18.000Z,1001.25
2023-10-26T10:10:18.000Z,1001.31
2023-10-26T10:11:18.000Z,1001.28
2023-10-26T10:12:18.000Z,1001.27
2023-10-26T10:13:19.000Z,1001.28
2023-10-26T10:14:19.000Z,1001.34
2023-10-26T10:15:19.000Z,1001.31
2023-10-26T10:16:19.000Z,1001.35
2023-10-26T10:17:20.000Z,1001.31
2023-10-26T10:18:20.000Z,1001.38
2023-10-26T10:19:20.000Z,1001.3
2023-10-26T10:20:21.000Z,1001.41
2023-10-26T10:21:28.000Z,1001.42
2023-10-26T10:22:36.000Z,1001.34
2023-10-26T10:23:37.000Z,1001.3
2023-10-26T10:24:37.000Z,1001.44
2023-10-26T10:25:37.000Z,1001.39
2023-10-26T10:26:39.000Z,1001.36
2023-10-26T10:27:39.000Z,1001.35
2023-10-26T10:28:39.000Z,1001.4
2023-10-26T10:29:40.000Z,1001.39
2023-10-26T10:30:40.000Z,1001.34
2023-10-26T10:31:40.000Z,1001.38
2023-10-26T10:32:40.000Z,1001.34
2023-10-26T10:33:41.000Z,1001.44
2023-10-26T10:34:41.000Z,1001.41
2023-10-26T10:35:41.000Z,1001.46
2023-10-26T10:36:41.000Z,1001.45
2023-10-26T10:37:42.000Z,1001.47
2023-10-26T10:38:42.000Z,1001.47
2023-10-26T10:39:42.000Z,1001.5
2023-10-26T10:40:43.000Z,1001.5
2023-10-26T10:41:43.000Z,1001.48
2023-10-26T10:42:43.000Z,1001.51
2023-10-26T10:43:44.000Z,1001.47
2023-10-26T10:44:44.000Z,1001.47
2023-10-26T10:45:47.000Z,1001.46
2023-10-26T10:46:55.000Z,1001.49
2023-10-26T10:48:02.000Z,1001.51
2023-10-26T10:49:10.000Z,1001.5
2023-10-26T10:50:10.000Z,1001.47
2023-10-26T10:51:10.000Z,1001.43
2023-10-26T10:52:11.000Z,1001.5
2023-10-26T10:53:11.000Z,1001.51
2023-10-26T10:54:11.000Z,1001.51
2023-10-26T10:55:11.000Z,1001.55
2023-10-26T10:56:11.000Z,1001.52
2023-10-26T10:57:12.000Z,1001.55
2023-10-26T10:58:12.000Z,1001.52
2023-10-26T10:59:12.000Z,1001.58
2023-10-26T11:00:13.000Z,1001.53
2023-10-26T11:01:13.000Z,1001.57
2023-10-26T11:02:13.000Z,1001.55
2023-10-26T11:03:13.000Z,1001.54
2023-10-26T11:04:14.000Z,1001.56
2023-10-26T11:05:14.000Z,1001.5
2023-10-26T11:06:14.000Z,1001.6
2023-10-26T11:07:15.000Z,1001.57
2023-10-26T11:08:15.000Z,1001.64
2023-10-26T11:09:15.000Z,1001.61
2023-10-26T11:10:15.000Z,1001.65
2023-10-26T11:11:16.000Z,1001.63
2023-10-26T11:12:16.000Z,1001.62
2023-10-26T11:13:16.000Z,1001.6
2023-10-26T11:14:17.000Z,1001.62
2023-10-26T11:15:17.000Z,1001.58
2023-10-26T11:16:17.000Z,1001.61
2023-10-26T11:17:17.000Z,1001.61
2023-10-26T11:18:18.000Z,1001.63
2023-10-26T11:19:18.000Z,1001.64
2023-10-26T11:20:18.000Z,1001.7
2023-10-26T11:21:18.000Z,1001.67
2023-10-26T11:22:19.000Z,1001.7
2023-10-26T11:23:19.000Z,1001.73
2023-10-26T11:24:19.000Z,1001.69
2023-10-26T11:25:20.000Z,1001.67
2023-10-26T11:26:20.000Z,1001.68
2023-10-26T11:27:22.000Z,1001.58
2023-10-26T11:28:22.000Z,1001.6
2023-10-26T11:29:23.000Z,1001.49
2023-10-26T11:30:23.000Z,1001.55
2023-10-26T11:31:24.000Z,1001.52
2023-10-26T11:32:27.000Z,1001.54
2023-10-26T11:33:34.000Z,1001.56
2023-10-26T11:34:38.000Z,1001.62
2023-10-26T11:35:38.000Z,1001.62
2023-10-26T11:36:38.000Z,1001.71
2023-10-26T11:37:39.000Z,1001.7
2023-10-26T11:38:39.000Z,1001.65
2023-10-26T11:39:40.000Z,1001.67
2023-10-26T11:40:40.000Z,1001.65
2023-10-26T11:41:40.000Z,1001.66
2023-10-26T11:42:44.000Z,1001.63
2023-10-26T11:43:44.000Z,1001.64
2023-10-26T11:44:45.000Z,1001.6
2023-10-26T11:45:45.000Z,1001.65
2023-10-26T11:46:46.000Z,1001.66
2023-10-26T11:47:46.000Z,1001.7
2023-10-26T11:48:54.000Z,1001.72
2023-10-26T11:49:54.000Z,1001.73
2023-10-26T11:50:54.000Z,1001.73
2023-10-26T11:51:54.000Z,1001.73
2023-10-26T11:52:55.000Z,1001.8
2023-10-26T11:53:55.000Z,1001.82
2023-10-26T11:54:55.000Z,1001.79
2023-10-26T11:55:56.000Z,1001.81
2023-10-26T11:56:56.000Z,1001.73
2023-10-26T11:57:56.000Z,1001.77
2023-10-26T11:58:57.000Z,1001.73
2023-10-26T11:59:57.000Z,1001.72
2023-10-26T12:00:58.000Z,1001.71
2023-10-26T12:01:58.000Z,1001.8
2023-10-26T12:03:00.000Z,1001.87
2023-10-26T12:04:00.000Z,1001.87
2023-10-26T12:05:01.000Z,1001.84
2023-10-26T12:06:01.000Z,1001.85
2023-10-26T12:07:02.000Z,1001.87
2023-10-26T12:08:02.000Z,1001.85
2023-10-26T12:09:02.000Z,1001.88
2023-10-26T12:10:02.000Z,1001.91
2023-10-26T12:11:03.000Z,1001.88
2023-10-26T12:12:03.000Z,1001.91
2023-10-26T12:13:03.000Z,1001.86
2023-10-26T12:14:04.000Z,1001.86
2023-10-26T12:15:04.000Z,1001.86
2023-10-26T12:16:04.000Z,1001.87
2023-10-26T12:17:05.000Z,1001.89
2023-10-26T12:18:05.000Z,1001.94
2023-10-26T12:19:05.000Z,1001.9
2023-10-26T12:20:05.000Z,1001.92
2023-10-26T12:21:06.000Z,1001.96
2023-10-26T12:22:06.000Z,1001.93
2023-10-26T12:23:06.000Z,1001.96
2023-10-26T12:24:06.000Z,1001.93
2023-10-26T12:25:07.000Z,1001.95
2023-10-26T12:26:07.000Z,1001.96
2023-10-26T12:27:07.000Z,1001.95
2023-10-26T12:28:15.000Z,1001.95